createdAt,value
2023-04-13T00:00:02.014Z,6.75
2023-04-13T00:01:01.939Z,6.78
2023-04-13T00:02:02.103Z,6.82
2023-04-13T00:03:02.107Z,6.87
2023-04-13T00:04:02.093Z,6.87
2023-04-13T00:05:01.859Z,6.87
2023-04-13T00:06:01.786Z,6.78
2023-04-13T00:07:01.786Z,6.81
2023-04-13T00:08:01.730Z,6.81
2023-04-13T00:09:01.704Z,6.78
2023-04-13T00:10:01.682Z,6.73
2023-04-13T00:11:01.635Z,6.73
2023-04-13T00:12:01.605Z,6.64
2023-04-13T00:13:01.599Z,6.73
2023-04-13T00:14:01.584Z,6.71
2023-04-13T00:15:01.517Z,6.75
2023-04-13T00:16:01.497Z,6.82
2023-04-13T00:17:01.514Z,6.78
2023-04-13T00:18:01.452Z,6.76
2023-04-13T00:19:01.395Z,6.93
2023-04-13T00:20:01.391Z,7.05
2023-04-13T00:21:01.337Z,7.00
2023-04-13T00:22:01.304Z,6.91
2023-04-13T00:23:01.341Z,6.93
2023-04-13T00:24:01.243Z,6.93
2023-04-13T00:25:01.217Z,6.93
2023-04-13T00:26:01.182Z,6.97
2023-04-13T00:27:01.167Z,7.05
2023-04-13T00:28:01.128Z,6.96
2023-04-13T00:29:01.094Z,6.91
2023-04-13T00:30:01.074Z,6.81
2023-04-13T00:31:01.118Z,6.82
2023-04-13T00:32:01.004Z,6.76
2023-04-13T00:33:01.015Z,6.81
2023-04-13T00:34:00.946Z,6.75
2023-04-13T00:35:00.918Z,6.82
2023-04-13T00:36:00.883Z,6.78
2023-04-13T00:37:00.854Z,6.83
2023-04-13T00:38:00.820Z,6.87
2023-04-13T00:39:00.812Z,6.82
2023-04-13T00:40:00.766Z,6.73
2023-04-13T00:41:00.731Z,6.83
2023-04-13T00:42:00.699Z,6.79
2023-04-13T00:43:00.730Z,6.76
2023-04-13T00:44:00.666Z,6.61
2023-04-13T00:45:00.611Z,6.64
2023-04-13T00:46:00.609Z,6.53
2023-04-13T00:47:00.550Z,6.71
2023-04-13T00:48:00.697Z,6.64
2023-04-13T00:49:00.492Z,6.60
2023-04-13T00:50:00.459Z,6.72
2023-04-13T00:51:00.427Z,6.65
2023-04-13T00:52:00.399Z,6.61
2023-04-13T00:53:00.377Z,6.69
2023-04-13T00:54:00.419Z,6.73
2023-04-13T00:55:00.333Z,6.63
2023-04-13T00:56:00.276Z,6.68
2023-04-13T00:57:00.244Z,6.63
2023-04-13T00:58:00.212Z,6.57
2023-04-13T00:59:00.182Z,6.57
2023-04-13T01:00:00.250Z,6.46
2023-04-13T01:01:00.132Z,6.53
2023-04-13T01:02:00.258Z,6.45
2023-04-13T01:03:00.108Z,6.38
2023-04-13T01:04:00.413Z,6.39
2023-04-13T01:05:00.003Z,6.57
2023-04-13T01:06:00.001Z,6.64
2023-04-13T01:06:59.941Z,6.57
2023-04-13T01:07:59.914Z,6.48
2023-04-13T01:08:59.877Z,6.36
2023-04-13T01:09:59.849Z,6.35
2023-04-13T01:10:59.835Z,6.32
2023-04-13T01:11:59.783Z,6.27
2023-04-13T01:12:59.753Z,6.21
2023-04-13T01:13:59.897Z,6.19
2023-04-13T01:14:59.696Z,6.14
2023-04-13T01:15:59.721Z,6.27
2023-04-13T01:16:59.631Z,6.27
2023-04-13T01:17:59.675Z,6.16
2023-04-13T01:18:59.572Z,6.14
2023-04-13T01:19:59.544Z,6.27
2023-04-13T01:20:59.512Z,6.20
2023-04-13T01:21:59.478Z,6.38
2023-04-13T01:22:59.447Z,6.36
2023-04-13T01:23:59.627Z,6.35
2023-04-13T01:24:59.394Z,6.32
2023-04-13T01:25:59.361Z,6.35
2023-04-13T01:26:59.344Z,6.40
2023-04-13T01:27:59.312Z,6.53
2023-04-13T01:28:59.263Z,6.51
2023-04-13T01:29:59.232Z,6.45
2023-04-13T01:30:59.224Z,6.40
2023-04-13T01:31:59.172Z,6.32
2023-04-13T01:32:59.203Z,6.39
2023-04-13T01:33:59.320Z,6.38
2023-04-13T01:34:59.132Z,6.38
2023-04-13T01:35:59.049Z,6.42
2023-04-13T01:36:59.021Z,6.38
2023-04-13T01:37:58.993Z,6.35
2023-04-13T01:38:58.957Z,6.25
2023-04-13T01:39:58.926Z,6.38
2023-04-13T01:40:58.899Z,6.24
2023-04-13T01:41:58.871Z,6.30
2023-04-13T01:42:58.862Z,6.35
2023-04-13T01:43:59.089Z,6.35
2023-04-13T01:44:58.779Z,6.40
2023-04-13T01:45:58.744Z,6.57
2023-04-13T01:46:58.913Z,6.50
2023-04-13T01:47:58.740Z,6.54
2023-04-13T01:48:58.659Z,6.51
2023-04-13T01:49:58.622Z,6.42
2023-04-13T01:50:58.601Z,6.33
2023-04-13T01:51:58.574Z,6.46
2023-04-13T01:52:58.540Z,6.39
2023-04-13T01:53:58.703Z,6.36
2023-04-13T01:54:58.471Z,6.48
2023-04-13T01:55:58.439Z,6.42
2023-04-13T01:56:58.410Z,6.45
2023-04-13T01:57:58.379Z,6.39
2023-04-13T01:58:58.370Z,6.43
2023-04-13T01:59:58.317Z,6.39
2023-04-13T02:00:58.333Z,6.48
2023-04-13T02:01:58.276Z,6.36
2023-04-13T02:02:58.328Z,6.38
2023-04-13T02:03:58.714Z,6.39
2023-04-13T02:04:58.166Z,6.39
2023-04-13T02:05:58.134Z,6.46
2023-04-13T02:06:58.105Z,6.48
2023-04-13T02:07:58.074Z,6.33
2023-04-13T02:08:58.043Z,6.35
2023-04-13T02:09:58.012Z,6.25
2023-04-13T02:10:57.991Z,6.24
2023-04-13T02:11:57.954Z,6.28
2023-04-13T02:12:57.921Z,6.24
2023-04-13T02:13:58.367Z,6.20
2023-04-13T02:14:57.934Z,6.16
2023-04-13T02:15:57.874Z,6.10
2023-04-13T02:16:57.802Z,6.13
2023-04-13T02:17:57.867Z,6.13
2023-04-13T02:18:57.740Z,6.11
2023-04-13T02:19:57.716Z,6.08
2023-04-13T02:20:57.679Z,6.11
2023-04-13T02:21:57.647Z,6.11
2023-04-13T02:22:57.619Z,6.16
2023-04-13T02:23:57.930Z,6.14
2023-04-13T02:24:57.562Z,6.17
2023-04-13T02:25:57.534Z,6.11
2023-04-13T02:26:57.497Z,6.02
2023-04-13T02:27:57.469Z,6.05
2023-04-13T02:28:57.438Z,6.05
2023-04-13T02:29:57.402Z,6.10
2023-04-13T02:30:57.406Z,6.10
2023-04-13T02:31:57.379Z,6.19
2023-04-13T02:32:57.373Z,6.13
2023-04-13T02:33:57.716Z,6.20
2023-04-13T02:34:57.263Z,6.19
2023-04-13T02:35:57.228Z,6.14
2023-04-13T02:36:57.197Z,6.17
2023-04-13T02:37:57.159Z,6.08
2023-04-13T02:38:57.133Z,6.14
2023-04-13T02:39:57.117Z,6.08
2023-04-13T02:40:57.070Z,6.08
2023-04-13T02:41:57.040Z,6.06
2023-04-13T02:42:57.015Z,6.08
2023-04-13T02:43:57.514Z,6.10
2023-04-13T02:44:56.952Z,6.16
2023-04-13T02:45:56.962Z,6.21
2023-04-13T02:46:56.910Z,6.14
2023-04-13T02:47:56.940Z,6.19
2023-04-13T02:48:56.826Z,6.28
2023-04-13T02:49:56.794Z,6.17
2023-04-13T02:50:56.763Z,6.11
2023-04-13T02:51:56.737Z,6.10
2023-04-13T02:52:56.709Z,6.13
2023-04-13T02:53:58.142Z,6.05
2023-04-13T02:54:56.641Z,6.17
2023-04-13T02:55:56.613Z,6.08
2023-04-13T02:56:56.581Z,6.13
2023-04-13T02:57:56.556Z,6.24
2023-04-13T02:58:56.519Z,6.35
2023-04-13T02:59:56.507Z,6.35
2023-04-13T03:00:56.478Z,6.20
2023-04-13T03:01:56.445Z,6.36
2023-04-13T03:02:56.531Z,6.24
2023-04-13T03:03:56.618Z,6.30
2023-04-13T03:04:56.431Z,6.28
2023-04-13T03:05:56.312Z,6.28
2023-04-13T03:06:56.288Z,6.24
2023-04-13T03:07:56.251Z,6.24
2023-04-13T03:08:56.216Z,6.28
2023-04-13T03:09:56.195Z,6.25
2023-04-13T03:10:56.152Z,6.16
2023-04-13T03:11:56.130Z,6.10
2023-04-13T03:12:56.100Z,6.14
2023-04-13T03:13:56.153Z,6.11
2023-04-13T03:14:56.040Z,6.19
2023-04-13T03:15:56.005Z,6.24
2023-04-13T03:16:56.030Z,6.17
2023-04-13T03:17:55.997Z,6.21
2023-04-13T03:18:55.937Z,6.28
2023-04-13T03:19:55.882Z,6.36
2023-04-13T03:20:55.851Z,6.30
2023-04-13T03:21:55.822Z,6.24
2023-04-13T03:22:55.792Z,6.28
2023-04-13T03:23:55.867Z,6.30
2023-04-13T03:24:55.741Z,6.27
2023-04-13T03:25:55.704Z,6.24
2023-04-13T03:26:55.672Z,6.35
2023-04-13T03:27:55.645Z,6.36
2023-04-13T03:28:55.614Z,6.30
2023-04-13T03:29:55.583Z,6.28
2023-04-13T03:30:55.618Z,6.24
2023-04-13T03:31:55.520Z,6.35
2023-04-13T03:32:55.531Z,6.24
2023-04-13T03:33:55.460Z,6.30
2023-04-13T03:34:55.456Z,6.25
2023-04-13T03:35:55.403Z,6.28
2023-04-13T03:36:55.373Z,6.35
2023-04-13T03:37:55.342Z,6.45
2023-04-13T03:38:55.311Z,6.33
2023-04-13T03:39:55.281Z,6.30
2023-04-13T03:40:55.250Z,6.25
2023-04-13T03:41:55.231Z,6.19
2023-04-13T03:42:55.188Z,6.32
2023-04-13T03:44:55.133Z,6.33
2023-04-13T03:45:55.135Z,6.25
2023-04-13T03:46:55.072Z,6.20
2023-04-13T03:47:55.123Z,6.21
2023-04-13T03:48:55.014Z,6.20
2023-04-13T03:49:54.976Z,6.25
2023-04-13T03:50:54.982Z,6.19
2023-04-13T03:51:54.925Z,6.20
2023-04-13T03:52:54.892Z,6.14
2023-04-13T03:53:54.858Z,6.10
2023-04-13T03:54:54.861Z,6.11
2023-04-13T03:55:54.802Z,6.14
2023-04-13T03:56:54.765Z,6.16
2023-04-13T03:57:54.732Z,6.10
2023-04-13T03:58:54.704Z,6.08
2023-04-13T03:59:54.673Z,6.13
2023-04-13T04:00:54.644Z,6.05
2023-04-13T04:01:54.628Z,6.05
2023-04-13T04:02:54.787Z,6.02
2023-04-13T04:03:54.669Z,6.05
2023-04-13T04:04:54.578Z,6.01
2023-04-13T04:05:54.493Z,6.05
2023-04-13T04:06:54.488Z,6.03
2023-04-13T04:07:54.430Z,6.03
2023-04-13T04:08:54.417Z,6.01
2023-04-13T04:09:54.382Z,6.02
2023-04-13T04:10:54.340Z,6.01
2023-04-13T04:11:54.309Z,5.92
2023-04-13T04:12:54.277Z,5.80
2023-04-13T04:13:54.254Z,5.75
2023-04-13T04:14:54.223Z,5.69
2023-04-13T04:15:54.213Z,5.55
2023-04-13T04:16:54.162Z,5.52
2023-04-13T04:17:54.169Z,5.59
2023-04-13T04:18:54.097Z,5.49
2023-04-13T04:19:54.076Z,5.56
2023-04-13T04:20:54.032Z,5.49
2023-04-13T04:21:54.000Z,5.59
2023-04-13T04:22:54.001Z,5.74
2023-04-13T04:23:53.939Z,5.78
2023-04-13T04:24:53.909Z,5.85
2023-04-13T04:25:53.883Z,5.66
2023-04-13T04:26:53.848Z,5.73
2023-04-13T04:27:53.818Z,5.58
2023-04-13T04:28:53.783Z,5.55
2023-04-13T04:29:53.754Z,5.63
2023-04-13T04:30:53.725Z,5.51
2023-04-13T04:31:54.118Z,5.59
2023-04-13T04:32:53.710Z,5.63
2023-04-13T04:33:53.635Z,5.49
2023-04-13T04:34:53.608Z,5.44
2023-04-13T04:35:53.603Z,5.49
2023-04-13T04:36:53.542Z,5.44
2023-04-13T04:37:53.506Z,5.35
2023-04-13T04:38:53.547Z,5.33
2023-04-13T04:39:53.472Z,5.29
2023-04-13T04:40:53.417Z,5.40
2023-04-13T04:41:53.396Z,5.26
2023-04-13T04:42:53.357Z,5.35
2023-04-13T04:43:53.326Z,5.38
2023-04-13T04:44:53.295Z,5.40
2023-04-13T04:45:53.298Z,5.48
2023-04-13T04:46:53.230Z,5.30
2023-04-13T04:47:53.306Z,5.33
2023-04-13T04:48:53.176Z,5.27
2023-04-13T04:49:53.140Z,5.33
2023-04-13T04:50:53.113Z,5.44
2023-04-13T04:51:53.088Z,5.47
2023-04-13T04:52:53.047Z,5.48
2023-04-13T04:53:53.041Z,5.45
2023-04-13T04:54:53.011Z,5.42
2023-04-13T04:55:52.969Z,5.45
2023-04-13T04:56:52.930Z,5.60
2023-04-13T04:57:52.894Z,5.65
2023-04-13T04:58:52.878Z,5.66
2023-04-13T04:59:52.834Z,5.65
2023-04-13T05:00:52.899Z,5.74
2023-04-13T05:01:52.839Z,5.63
2023-04-13T05:02:52.895Z,5.69
2023-04-13T05:03:52.716Z,5.78
2023-04-13T05:04:52.730Z,5.85
2023-04-13T05:05:52.656Z,5.83
2023-04-13T05:06:52.622Z,5.85
2023-04-13T05:07:52.593Z,5.81
2023-04-13T05:08:52.561Z,5.85
2023-04-13T05:09:52.531Z,5.87
2023-04-13T05:10:52.519Z,5.90
2023-04-13T05:11:52.477Z,5.87
2023-04-13T05:12:52.440Z,5.90
2023-04-13T05:13:52.409Z,5.96
2023-04-13T05:14:52.380Z,5.93
2023-04-13T05:15:52.362Z,5.99
2023-04-13T05:16:52.322Z,5.88
2023-04-13T05:17:52.309Z,5.99
2023-04-13T05:18:52.257Z,5.96
2023-04-13T05:19:52.227Z,5.87
2023-04-13T05:20:52.199Z,5.96
2023-04-13T05:21:52.167Z,6.01
2023-04-13T05:22:52.137Z,5.85
2023-04-13T05:23:52.127Z,5.98
2023-04-13T05:24:52.086Z,5.87
2023-04-13T05:25:52.044Z,5.90
2023-04-13T05:26:52.089Z,5.99
2023-04-13T05:27:52.006Z,5.95
2023-04-13T05:28:51.958Z,6.01
2023-04-13T05:29:51.924Z,5.90
2023-04-13T05:30:51.896Z,5.87
2023-04-13T05:31:51.928Z,5.84
2023-04-13T05:32:51.937Z,5.85
2023-04-13T05:33:51.801Z,5.95
2023-04-13T05:34:51.771Z,5.93
2023-04-13T05:35:51.742Z,5.92
2023-04-13T05:36:51.711Z,5.93
2023-04-13T05:37:51.682Z,5.87
2023-04-13T05:38:51.697Z,5.88
2023-04-13T05:39:51.625Z,5.84
2023-04-13T05:40:51.588Z,5.84
2023-04-13T05:41:51.560Z,5.93
2023-04-13T05:42:51.560Z,5.93
2023-04-13T05:43:51.498Z,5.90
2023-04-13T05:44:51.467Z,5.88
2023-04-13T05:45:51.555Z,5.85
2023-04-13T05:46:51.408Z,5.85
2023-04-13T05:47:51.395Z,5.87
2023-04-13T05:48:51.358Z,5.84
2023-04-13T05:49:51.311Z,5.87
2023-04-13T05:50:51.283Z,5.96
2023-04-13T05:51:51.251Z,6.02
2023-04-13T05:52:51.224Z,5.96
2023-04-13T05:53:51.190Z,5.92
2023-04-13T05:54:51.161Z,6.05
2023-04-13T05:55:51.131Z,5.92
2023-04-13T05:56:51.097Z,5.87
2023-04-13T05:57:51.065Z,5.95
2023-04-13T05:58:51.055Z,5.98
2023-04-13T05:59:51.038Z,5.85
2023-04-13T06:00:50.977Z,6.06
2023-04-13T06:01:52.203Z,5.98
2023-04-13T06:02:51.065Z,5.99
2023-04-13T06:03:51.028Z,6.08
2023-04-13T06:04:50.936Z,6.05
2023-04-13T06:05:50.819Z,6.05
2023-04-13T06:06:50.789Z,6.01
2023-04-13T06:07:50.758Z,6.08
2023-04-13T06:08:50.729Z,6.01
2023-04-13T06:09:50.698Z,6.03
2023-04-13T06:10:50.668Z,6.01
2023-04-13T06:11:50.639Z,6.08
2023-04-13T06:12:50.610Z,5.98
2023-04-13T06:13:50.573Z,6.02
2023-04-13T06:14:50.566Z,6.08
2023-04-13T06:15:50.513Z,6.05
2023-04-13T06:16:50.511Z,6.02
2023-04-13T06:17:50.485Z,6.08
2023-04-13T06:18:50.421Z,6.14
2023-04-13T06:19:50.395Z,6.21
2023-04-13T06:20:50.365Z,6.17
2023-04-13T06:21:50.329Z,6.14
2023-04-13T06:22:50.306Z,6.25
2023-04-13T06:23:50.280Z,6.27
2023-04-13T06:24:50.246Z,6.35
2023-04-13T06:25:50.208Z,6.39
2023-04-13T06:26:50.182Z,6.36
2023-04-13T06:27:50.387Z,6.35
2023-04-13T06:28:50.136Z,6.33
2023-04-13T06:29:50.095Z,6.36
2023-04-13T06:30:50.121Z,6.21
2023-04-13T06:31:50.038Z,6.32
2023-04-13T06:32:50.043Z,6.33
2023-04-13T06:33:49.969Z,6.57
2023-04-13T06:34:49.939Z,6.51
2023-04-13T06:35:49.906Z,6.54
2023-04-13T06:36:49.897Z,6.53
2023-04-13T06:37:49.845Z,6.42
2023-04-13T06:38:49.819Z,6.50
2023-04-13T06:39:49.811Z,6.46
2023-04-13T06:40:49.765Z,6.46
2023-04-13T06:41:49.726Z,6.51
2023-04-13T06:42:49.706Z,6.51
2023-04-13T06:43:49.665Z,6.61
2023-04-13T06:44:49.666Z,6.58
2023-04-13T06:45:49.677Z,6.55
2023-04-13T06:46:49.703Z,6.76
2023-04-13T06:47:49.556Z,6.63
2023-04-13T06:48:49.518Z,6.79
2023-04-13T06:49:49.491Z,6.81
2023-04-13T06:50:49.459Z,6.83
2023-04-13T06:51:49.429Z,6.81
2023-04-13T06:52:49.410Z,6.79
2023-04-13T06:53:49.367Z,6.78
2023-04-13T06:54:49.339Z,6.71
2023-04-13T06:55:49.331Z,6.72
2023-04-13T06:56:49.279Z,6.76
2023-04-13T06:57:49.255Z,6.82
2023-04-13T06:58:49.223Z,6.72
2023-04-13T06:59:49.213Z,6.72
2023-04-13T07:00:49.211Z,6.69
2023-04-13T07:01:49.264Z,6.78
2023-04-13T07:02:49.388Z,6.82
2023-04-13T07:03:49.240Z,7.00
2023-04-13T07:04:49.087Z,6.87
2023-04-13T07:05:49.017Z,6.96
2023-04-13T07:06:48.984Z,6.91
2023-04-13T07:07:48.973Z,6.86
2023-04-13T07:08:48.940Z,6.96
2023-04-13T07:09:48.916Z,6.96
2023-04-13T07:10:48.865Z,7.00
2023-04-13T07:11:48.854Z,7.11
2023-04-13T07:12:48.809Z,7.07
2023-04-13T07:13:48.780Z,7.07
2023-04-13T07:14:48.747Z,7.04
2023-04-13T07:15:48.761Z,7.09
2023-04-13T07:16:48.698Z,7.12
2023-04-13T07:17:48.686Z,7.07
2023-04-13T07:18:48.655Z,7.16
2023-04-13T07:19:48.600Z,7.26
2023-04-13T07:20:48.569Z,7.18
2023-04-13T07:21:48.539Z,7.18
2023-04-13T07:22:48.510Z,7.16
2023-04-13T07:23:48.479Z,7.26
2023-04-13T07:24:48.450Z,7.36
2023-04-13T07:25:48.421Z,7.27
2023-04-13T07:26:48.387Z,7.45
2023-04-13T07:27:48.367Z,7.57
2023-04-13T07:28:48.335Z,7.60
2023-04-13T07:29:48.314Z,7.60
2023-04-13T07:30:48.273Z,7.55
2023-04-13T07:31:48.326Z,7.74
2023-04-13T07:32:48.295Z,7.76
2023-04-13T07:33:48.186Z,7.70
2023-04-13T07:34:48.176Z,7.47
2023-04-13T07:35:48.127Z,7.47
2023-04-13T07:36:48.095Z,7.45
2023-04-13T07:37:48.343Z,7.42
2023-04-13T07:38:48.037Z,7.42
2023-04-13T07:39:48.005Z,7.42
2023-04-13T07:40:47.985Z,7.39
2023-04-13T07:41:47.956Z,7.30
2023-04-13T07:42:47.917Z,7.23
2023-04-13T07:43:47.890Z,7.16
2023-04-13T07:44:47.866Z,7.26
2023-04-13T07:45:47.831Z,7.19
2023-04-13T07:46:47.887Z,7.30
2023-04-13T07:47:47.825Z,7.44
2023-04-13T07:48:47.756Z,7.50
2023-04-13T07:49:47.715Z,7.41
2023-04-13T07:50:47.700Z,7.39
2023-04-13T07:51:47.654Z,7.44
2023-04-13T07:52:47.624Z,7.42
2023-04-13T07:53:47.604Z,7.45
2023-04-13T07:54:47.568Z,7.51
2023-04-13T07:55:47.537Z,7.76
2023-04-13T07:56:47.508Z,7.79
2023-04-13T07:57:47.477Z,7.54
2023-04-13T07:58:47.452Z,7.60
2023-04-13T07:59:47.423Z,7.58
2023-04-13T08:00:47.389Z,7.52
2023-04-13T08:01:47.432Z,7.63
2023-04-13T08:02:47.533Z,7.51
2023-04-13T08:03:47.519Z,7.51
2023-04-13T08:04:47.414Z,7.60
2023-04-13T08:05:47.465Z,7.57
2023-04-13T08:06:47.253Z,7.71
2023-04-13T08:07:47.190Z,7.71
2023-04-13T08:08:47.162Z,7.82
2023-04-13T08:09:47.130Z,7.95
2023-04-13T08:10:47.103Z,8.00
2023-04-13T08:11:47.073Z,8.29
2023-04-13T08:12:47.045Z,8.36
2023-04-13T08:13:47.014Z,8.34
2023-04-13T08:14:46.985Z,8.14
2023-04-13T08:15:46.958Z,8.03
2023-04-13T08:16:47.004Z,8.06
2023-04-13T08:17:46.958Z,7.92
2023-04-13T08:18:46.878Z,7.63
2023-04-13T08:19:46.845Z,7.58
2023-04-13T08:20:46.818Z,7.55
2023-04-13T08:21:46.802Z,7.62
2023-04-13T08:22:46.783Z,7.70
2023-04-13T08:23:46.741Z,7.54
2023-04-13T08:24:46.704Z,7.57
2023-04-13T08:25:46.675Z,7.57
2023-04-13T08:26:46.647Z,7.48
2023-04-13T08:27:46.620Z,7.69
2023-04-13T08:28:46.590Z,7.48
2023-04-13T08:29:46.557Z,7.54
2023-04-13T08:30:46.530Z,7.60
2023-04-13T08:31:46.516Z,7.63
2023-04-13T08:32:46.540Z,7.57
2023-04-13T08:33:46.464Z,7.57
2023-04-13T08:34:46.419Z,7.48
2023-04-13T08:35:46.397Z,7.50
2023-04-13T08:36:46.368Z,7.55
2023-04-13T08:37:46.343Z,7.69
2023-04-13T08:38:46.322Z,7.71
2023-04-13T08:39:46.367Z,7.62
2023-04-13T08:40:46.611Z,7.66
2023-04-13T08:41:46.213Z,7.58
2023-04-13T08:42:46.187Z,7.60
2023-04-13T08:43:46.163Z,7.60
2023-04-13T08:44:46.126Z,7.67
2023-04-13T08:45:46.114Z,7.63
2023-04-13T08:46:46.130Z,7.55
2023-04-13T08:47:46.128Z,7.62
2023-04-13T08:48:59.075Z,7.39
2023-04-13T08:49:45.982Z,7.37
2023-04-13T08:50:45.955Z,7.39
2023-04-13T08:51:45.954Z,7.39
2023-04-13T08:52:45.898Z,7.29
2023-04-13T08:53:45.862Z,7.42
2023-04-13T08:54:45.888Z,7.44
2023-04-13T08:55:45.837Z,7.48
2023-04-13T08:56:46.987Z,7.51
2023-04-13T08:57:45.748Z,7.58
2023-04-13T08:58:45.717Z,7.60
2023-04-13T08:59:45.689Z,7.57
2023-04-13T09:00:45.660Z,7.44
2023-04-13T09:01:45.747Z,7.34
2023-04-13T09:03:00.407Z,7.19
2023-04-13T09:03:45.681Z,7.18
2023-04-13T09:04:45.648Z,7.04
2023-04-13T09:05:45.514Z,7.08
2023-04-13T09:06:45.483Z,7.14
2023-04-13T09:07:45.462Z,7.07
2023-04-13T09:08:45.441Z,6.94
2023-04-13T09:09:45.404Z,6.93
2023-04-13T09:10:45.385Z,7.05
2023-04-13T09:11:45.337Z,7.11
2023-04-13T09:12:45.308Z,7.18
2023-04-13T09:13:45.279Z,7.18
2023-04-13T09:14:45.248Z,7.33
2023-04-13T09:15:45.221Z,7.34
2023-04-13T09:16:45.220Z,7.26
2023-04-13T09:17:45.178Z,7.36
2023-04-13T09:18:45.132Z,7.51
2023-04-13T09:19:45.104Z,7.60
2023-04-13T09:20:45.078Z,7.74
2023-04-13T09:21:45.231Z,7.86
2023-04-13T09:22:45.018Z,7.76
2023-04-13T09:23:44.991Z,7.77
2023-04-13T09:24:44.979Z,7.84
2023-04-13T09:25:44.933Z,7.94
2023-04-13T09:26:44.985Z,7.92
2023-04-13T09:27:44.889Z,8.14
2023-04-13T09:28:44.845Z,8.02
2023-04-13T09:29:44.818Z,7.99
2023-04-13T09:30:44.829Z,8.02
2023-04-13T09:31:45.855Z,8.09
2023-04-13T09:32:44.782Z,8.14
2023-04-13T09:33:44.708Z,8.20
2023-04-13T09:34:44.674Z,8.00
2023-04-13T09:35:44.647Z,8.06
2023-04-13T09:36:54.028Z,7.86
2023-04-13T09:37:44.612Z,8.02
2023-04-13T09:38:44.561Z,8.13
2023-04-13T09:39:44.537Z,8.17
2023-04-13T09:40:44.503Z,8.09
2023-04-13T09:41:44.476Z,7.76
2023-04-13T09:42:44.467Z,7.71
2023-04-13T09:43:44.420Z,7.70
2023-04-13T09:44:44.392Z,7.57
2023-04-13T09:45:44.458Z,7.54
2023-04-13T09:46:44.364Z,7.48
2023-04-13T09:47:44.357Z,7.45
2023-04-13T09:48:44.284Z,7.34
2023-04-13T09:49:44.248Z,7.26
2023-04-13T09:50:44.224Z,7.05
2023-04-13T09:51:44.232Z,7.04
2023-04-13T09:52:44.167Z,6.97
2023-04-13T09:53:44.133Z,6.83
2023-04-13T09:54:44.107Z,6.94
2023-04-13T09:55:44.077Z,7.32
2023-04-13T09:56:44.050Z,7.50
2023-04-13T09:57:44.020Z,7.82
2023-04-13T09:58:44.019Z,7.99
2023-04-13T09:59:43.966Z,8.20
2023-04-13T10:00:43.933Z,8.25
2023-04-13T10:01:44.140Z,8.13
2023-04-13T10:02:44.088Z,8.42
2023-04-13T10:03:43.911Z,8.67
2023-04-13T10:04:43.873Z,8.89
2023-04-13T10:06:43.770Z,9.40
2023-04-13T10:07:43.736Z,9.68
2023-04-13T10:08:43.712Z,10.01
2023-04-13T10:09:43.680Z,10.28
2023-04-13T10:10:43.658Z,10.42
2023-04-13T10:11:43.625Z,10.49
2023-04-13T10:12:43.602Z,10.49
2023-04-13T10:13:43.571Z,10.75
2023-04-13T10:14:43.572Z,10.90
2023-04-13T10:15:43.537Z,10.94
2023-04-13T10:16:43.552Z,10.70
2023-04-13T10:17:43.552Z,10.83
2023-04-13T10:18:43.451Z,10.90
2023-04-13T10:19:43.495Z,11.03
2023-04-13T10:20:43.378Z,10.88
2023-04-13T10:21:43.350Z,11.06
2023-04-13T10:22:43.324Z,10.63
2023-04-13T10:23:43.300Z,10.51
2023-04-13T10:24:43.277Z,10.54
2023-04-13T10:25:43.244Z,10.55
2023-04-13T10:26:43.322Z,10.51
2023-04-13T10:27:43.192Z,10.11
2023-04-13T10:28:43.170Z,10.26
2023-04-13T10:29:43.136Z,10.47
2023-04-13T10:30:43.133Z,10.60
2023-04-13T10:31:43.137Z,10.35
2023-04-13T10:32:43.108Z,10.49
2023-04-13T10:33:44.012Z,10.68
2023-04-13T10:34:43.004Z,10.51
2023-04-13T10:35:43.717Z,10.38
2023-04-13T10:36:43.009Z,10.47
2023-04-13T10:37:42.948Z,10.52
2023-04-13T10:38:42.901Z,10.49
2023-04-13T10:39:42.879Z,10.69
2023-04-13T10:40:42.853Z,10.81
2023-04-13T10:41:42.823Z,10.88
2023-04-13T10:42:51.860Z,10.52
2023-04-13T10:43:42.768Z,9.88
2023-04-13T10:44:42.765Z,9.73
2023-04-13T10:45:42.717Z,9.24
2023-04-13T10:46:42.720Z,9.40
2023-04-13T10:47:42.707Z,9.42
2023-04-13T10:48:42.636Z,9.52
2023-04-13T10:49:42.611Z,9.45
2023-04-13T10:50:42.584Z,9.40
2023-04-13T10:51:42.571Z,9.59
2023-04-13T10:52:42.531Z,9.74
2023-04-13T10:53:42.508Z,9.52
2023-04-13T10:54:42.479Z,9.55
2023-04-13T10:55:42.452Z,9.49
2023-04-13T10:56:42.428Z,9.44
2023-04-13T10:57:42.396Z,9.62
2023-04-13T10:58:42.369Z,9.68
2023-04-13T10:59:55.533Z,9.62
2023-04-13T11:00:46.210Z,9.42
2023-04-13T11:01:42.314Z,9.32
2023-04-13T11:02:42.401Z,9.41
2023-04-13T11:03:53.191Z,9.42
2023-04-13T11:04:42.304Z,9.32
2023-04-13T11:05:42.186Z,9.37
2023-04-13T11:06:42.157Z,9.55
2023-04-13T11:07:42.138Z,9.67
2023-04-13T11:09:42.078Z,9.62
2023-04-13T11:10:42.054Z,9.65
2023-04-13T11:11:42.034Z,9.34
2023-04-13T11:12:42.001Z,9.44
2023-04-13T11:13:41.970Z,9.44
2023-04-13T11:14:41.944Z,9.26
2023-04-13T11:15:41.921Z,9.40
2023-04-13T11:16:41.916Z,9.52
2023-04-13T11:17:41.865Z,9.73
2023-04-13T11:18:41.856Z,9.85
2023-04-13T11:19:41.813Z,9.81
2023-04-13T11:20:41.809Z,9.96
2023-04-13T11:21:41.753Z,10.24
2023-04-13T11:22:47.404Z,10.36
2023-04-13T11:23:41.700Z,10.18
2023-04-13T11:24:41.673Z,9.86
2023-04-13T11:25:41.646Z,9.63
2023-04-13T11:26:42.978Z,9.86
2023-04-13T11:27:41.595Z,9.70
2023-04-13T11:28:41.567Z,9.38
2023-04-13T11:29:41.538Z,9.37
2023-04-13T11:30:41.519Z,9.58
2023-04-13T11:31:41.594Z,9.58
2023-04-13T11:32:41.594Z,9.56
2023-04-13T11:33:41.430Z,9.50
2023-04-13T11:34:41.427Z,9.48
2023-04-13T11:35:41.375Z,9.30
2023-04-13T11:36:41.349Z,9.40
2023-04-13T11:37:41.325Z,9.50
2023-04-13T11:38:41.292Z,9.81
2023-04-13T11:39:41.268Z,9.75
2023-04-13T11:40:41.250Z,9.41
2023-04-13T11:41:41.290Z,9.62
2023-04-13T11:42:41.188Z,9.70
2023-04-13T11:43:41.156Z,9.83
2023-04-13T11:44:41.131Z,9.93
2023-04-13T11:45:41.101Z,10.22
2023-04-13T11:46:41.163Z,10.51
2023-04-13T11:47:41.066Z,10.68
2023-04-13T11:48:41.032Z,10.58
2023-04-13T11:49:40.993Z,10.69
2023-04-13T11:50:40.985Z,10.73
2023-04-13T11:51:40.936Z,10.76
2023-04-13T11:52:40.918Z,10.62
2023-04-13T11:53:40.909Z,10.52
2023-04-13T11:54:40.860Z,10.58
2023-04-13T11:56:40.813Z,10.16
2023-04-13T11:57:40.779Z,10.34
2023-04-13T11:58:40.755Z,10.02
2023-04-13T11:59:40.728Z,10.14
2023-04-13T12:00:40.703Z,10.13
2023-04-13T12:01:49.311Z,10.17
2023-04-13T12:02:57.545Z,10.14
2023-04-13T12:03:53.476Z,9.93
2023-04-13T12:04:40.777Z,9.85
2023-04-13T12:05:41.028Z,9.75
2023-04-13T12:06:40.773Z,9.45
2023-04-13T12:07:40.909Z,9.04
2023-04-13T12:08:41.030Z,9.04
2023-04-13T12:09:55.384Z,8.88
2023-04-13T12:10:49.312Z,8.83
2023-04-13T12:11:42.825Z,8.75
2023-04-13T12:13:46.915Z,8.58
2023-04-13T12:14:57.603Z,8.36
2023-04-13T12:15:49.600Z,8.31
2023-04-13T12:17:43.951Z,8.36
2023-04-13T12:18:40.732Z,8.29
2023-04-13T12:19:40.919Z,8.36
2023-04-13T12:20:40.335Z,8.34
2023-04-13T12:21:40.304Z,7.89
2023-04-13T12:22:50.890Z,7.79
2023-04-13T12:23:40.124Z,7.77
2023-04-13T12:24:40.287Z,7.89
2023-04-13T12:25:41.937Z,8.02
2023-04-13T12:27:39.971Z,7.94
2023-04-13T12:28:39.939Z,7.99
2023-04-13T12:29:39.911Z,8.13
2023-04-13T12:30:39.884Z,8.12
2023-04-13T12:31:40.002Z,8.03
2023-04-13T12:32:39.955Z,8.02
2023-04-13T12:33:39.812Z,8.04
2023-04-13T12:34:39.775Z,8.12
2023-04-13T12:35:39.742Z,8.37
2023-04-13T12:36:39.715Z,8.55
2023-04-13T12:37:39.691Z,8.65
2023-04-13T12:38:39.679Z,8.50
2023-04-13T12:39:39.633Z,8.54
2023-04-13T12:40:39.609Z,8.63
2023-04-13T12:41:39.580Z,8.94
2023-04-13T12:42:39.553Z,9.17
2023-04-13T12:43:39.528Z,8.94
2023-04-13T12:44:39.494Z,8.91
2023-04-13T12:45:39.539Z,8.93
2023-04-13T12:46:39.475Z,8.97
2023-04-13T12:47:39.486Z,9.10
2023-04-13T12:48:39.402Z,9.41
2023-04-13T12:49:39.357Z,9.23
2023-04-13T12:50:39.331Z,9.48
2023-04-13T12:51:39.309Z,9.44
2023-04-13T12:52:39.280Z,9.38
2023-04-13T12:53:39.249Z,9.32
2023-04-13T12:54:39.257Z,9.40
2023-04-13T12:55:39.197Z,9.53
2023-04-13T12:56:39.170Z,10.02
2023-04-13T12:57:39.142Z,9.89
2023-04-13T12:58:39.118Z,9.74
2023-04-13T12:59:39.090Z,9.68
2023-04-13T13:00:39.083Z,9.77
2023-04-13T13:01:39.139Z,10.14
2023-04-13T13:02:39.178Z,10.13
2023-04-13T13:03:39.077Z,9.93
2023-04-13T13:04:39.024Z,9.91
2023-04-13T13:05:38.931Z,10.38
2023-04-13T13:06:38.910Z,10.68
2023-04-13T13:07:38.874Z,10.95
2023-04-13T13:08:40.404Z,11.28
2023-04-13T13:09:38.826Z,11.48
2023-04-13T13:10:38.822Z,11.30
2023-04-13T13:11:38.774Z,11.54
2023-04-13T13:12:38.763Z,11.33
2023-04-13T13:13:38.723Z,10.65
2023-04-13T13:14:38.694Z,10.14
2023-04-13T13:15:38.668Z,9.58
2023-04-13T13:16:38.685Z,9.42
2023-04-13T13:17:38.643Z,9.60
2023-04-13T13:18:47.027Z,9.75
2023-04-13T13:19:38.570Z,9.60
2023-04-13T13:20:38.542Z,9.78
2023-04-13T13:21:38.521Z,9.91
2023-04-13T13:22:38.504Z,10.01